Kizlyar, Russia
Current Conditions -  °F | °C
As of 5:00 AM on Saturday 20 Dec 2014 (Local Time) from URML Reporting Station
Scattered Clouds Scattered Clouds  
Wind Chill: 34°   Ceiling: Unl
Heat Index: 37°   Visibility: 4mi
Dew Point: 36°   Wind: 4mph
Humidity: 93%   Direction: 250°WSW
Pressure: 30.18"   Gusts: NA
Location:  43.85°N, 46.72°E
Report Text: URML 200200Z 25002MPS 6000 SCT100 03/02 Q1022 NOSIG RMKQFE766/1022 SC070
Loading
Personal Weather Stations






























Interactive Weather Map New forecast layout! Learn more

10-Day Weather Forecast

Advertisements
Track Severe Weather on mobile